createdAt,value
2018-03-07T00:00:32.620Z,7.90
2018-03-07T00:03:00.104Z,7.90
2018-03-07T00:05:27.584Z,7.90
2018-03-07T00:07:55.850Z,7.90
2018-03-07T00:10:24.099Z,7.90
2018-03-07T00:12:51.544Z,7.90
2018-03-07T00:15:19.019Z,7.90
2018-03-07T00:17:47.178Z,7.90
2018-03-07T00:20:14.647Z,8.00
2018-03-07T00:22:42.112Z,8.00
2018-03-07T00:25:09.599Z,7.90
2018-03-07T00:27:37.068Z,7.90
2018-03-07T00:30:04.547Z,7.90
2018-03-07T00:32:32.000Z,7.90
2018-03-07T00:34:59.483Z,7.80
2018-03-07T00:37:26.943Z,7.90
2018-03-07T00:39:54.439Z,7.90
2018-03-07T00:42:21.935Z,7.90
2018-03-07T00:44:49.380Z,7.90
2018-03-07T00:47:16.861Z,7.90
2018-03-07T00:49:44.329Z,7.90
2018-03-07T00:52:11.795Z,7.90
2018-03-07T00:54:39.542Z,7.90
2018-03-07T00:57:07.016Z,7.90
2018-03-07T00:59:34.485Z,7.80
2018-03-07T01:02:02.744Z,7.70
2018-03-07T01:04:30.199Z,7.70
2018-03-07T01:06:57.674Z,7.60
2018-03-07T01:09:25.139Z,7.50
2018-03-07T01:11:52.603Z,7.50
2018-03-07T01:14:20.099Z,7.40
2018-03-07T01:16:47.539Z,7.30
2018-03-07T01:19:15.011Z,7.20
2018-03-07T01:21:42.458Z,7.10
2018-03-07T01:24:09.928Z,7.00
2018-03-07T01:26:37.377Z,7.00
2018-03-07T01:29:04.848Z,7.00
2018-03-07T01:31:32.296Z,7.00
2018-03-07T01:33:59.860Z,6.90
2018-03-07T01:36:27.307Z,6.90
2018-03-07T01:38:54.787Z,6.80
2018-03-07T01:41:22.271Z,6.70
2018-03-07T01:43:49.730Z,6.70
2018-03-07T01:46:17.214Z,6.70
2018-03-07T01:48:44.679Z,6.60
2018-03-07T01:51:12.157Z,6.60
2018-03-07T01:53:39.594Z,6.60
2018-03-07T01:56:07.054Z,6.60
2018-03-07T01:58:34.569Z,6.50
2018-03-07T02:01:02.013Z,6.50
2018-03-07T02:03:30.272Z,6.30
2018-03-07T02:05:57.722Z,6.30
2018-03-07T02:08:25.220Z,6.40
2018-03-07T02:10:52.669Z,6.40
2018-03-07T02:13:20.147Z,6.30
2018-03-07T02:15:47.922Z,6.30
2018-03-07T02:18:15.396Z,6.30
2018-03-07T02:20:42.871Z,6.40
2018-03-07T02:23:11.101Z,6.20
2018-03-07T02:25:38.567Z,6.20
2018-03-07T02:28:06.008Z,6.10
2018-03-07T02:30:33.487Z,6.00
2018-03-07T02:33:00.945Z,6.00
2018-03-07T02:35:28.435Z,6.00
2018-03-07T02:37:55.911Z,6.00
2018-03-07T02:40:24.132Z,6.00
2018-03-07T02:42:51.612Z,6.00
2018-03-07T02:45:19.076Z,6.00
2018-03-07T02:47:46.556Z,6.00
2018-03-07T02:50:14.776Z,6.00
2018-03-07T02:52:42.243Z,6.00
2018-03-07T02:55:09.716Z,6.00
2018-03-07T02:57:37.227Z,5.90
2018-03-07T03:00:04.698Z,5.90
2018-03-07T03:02:32.152Z,5.90
2018-03-07T03:04:59.633Z,6.00
2018-03-07T03:07:27.078Z,6.00
2018-03-07T03:09:54.565Z,6.00
2018-03-07T03:12:22.784Z,5.80
2018-03-07T03:14:50.227Z,5.80
2018-03-07T03:17:17.693Z,5.90
2018-03-07T03:19:45.171Z,5.90
2018-03-07T03:22:12.627Z,6.00
2018-03-07T03:24:40.719Z,6.00
2018-03-07T03:27:08.174Z,6.00
2018-03-07T03:29:35.639Z,6.00
2018-03-07T03:32:03.091Z,6.00
2018-03-07T03:34:30.564Z,5.90
2018-03-07T03:36:58.842Z,5.90
2018-03-07T03:39:26.279Z,5.80
2018-03-07T03:41:53.728Z,5.80
2018-03-07T03:44:21.196Z,5.80
2018-03-07T03:46:48.663Z,5.70
2018-03-07T03:49:16.904Z,5.70
2018-03-07T03:51:44.351Z,5.70
2018-03-07T03:54:11.848Z,5.70
2018-03-07T03:56:40.070Z,5.70
2018-03-07T03:59:07.516Z,5.70
2018-03-07T04:01:34.983Z,5.70
2018-03-07T04:04:02.437Z,5.70
2018-03-07T04:06:29.889Z,5.70
2018-03-07T04:08:57.388Z,5.70
2018-03-07T04:11:24.856Z,5.80
2018-03-07T04:13:53.096Z,5.70
2018-03-07T04:16:20.547Z,5.70
2018-03-07T04:18:48.023Z,5.70
2018-03-07T04:21:15.476Z,5.70
2018-03-07T04:23:42.969Z,5.70
2018-03-07T04:26:11.187Z,5.70
2018-03-07T04:28:38.667Z,5.70
2018-03-07T04:31:06.115Z,5.60
2018-03-07T04:33:33.583Z,5.60
2018-03-07T04:36:02.548Z,5.50
2018-03-07T04:38:30.028Z,5.50
2018-03-07T04:40:57.471Z,5.50
2018-03-07T04:43:24.955Z,5.60
2018-03-07T04:45:52.433Z,5.60
2018-03-07T04:48:20.654Z,5.60
2018-03-07T04:50:48.155Z,5.60
2018-03-07T04:53:16.379Z,5.50
2018-03-07T04:55:43.896Z,5.50
2018-03-07T04:58:12.112Z,5.60
2018-03-07T05:00:39.594Z,5.50
2018-03-07T05:03:07.051Z,5.50
2018-03-07T05:05:34.511Z,5.50
2018-03-07T05:08:01.971Z,5.50
2018-03-07T05:10:30.284Z,5.50
2018-03-07T05:12:57.712Z,5.50
2018-03-07T05:15:25.203Z,5.50
2018-03-07T05:17:52.688Z,5.50
2018-03-07T05:20:20.143Z,5.50
2018-03-07T05:22:47.610Z,5.50
2018-03-07T05:25:15.088Z,5.50
2018-03-07T05:27:42.595Z,5.50
2018-03-07T05:30:10.048Z,5.50
2018-03-07T05:32:37.521Z,5.50
2018-03-07T05:35:05.007Z,5.60
2018-03-07T05:37:32.484Z,5.50
2018-03-07T05:40:00.723Z,5.50
2018-03-07T05:42:28.184Z,5.50
2018-03-07T05:44:55.692Z,5.60
2018-03-07T05:47:23.148Z,5.60
2018-03-07T05:49:50.597Z,5.70
2018-03-07T05:52:18.832Z,5.70
2018-03-07T05:54:46.279Z,5.70
2018-03-07T05:57:13.756Z,5.70
2018-03-07T05:59:41.226Z,5.70
2018-03-07T06:02:09.467Z,5.70
2018-03-07T06:04:36.924Z,5.70
2018-03-07T06:07:04.404Z,5.70
2018-03-07T06:09:32.616Z,5.90
2018-03-07T06:12:00.103Z,5.80
2018-03-07T06:14:27.609Z,5.90
2018-03-07T06:16:55.059Z,6.00
2018-03-07T06:19:23.273Z,6.00
2018-03-07T06:21:50.719Z,6.00
2018-03-07T06:24:18.199Z,6.00
2018-03-07T06:26:45.652Z,6.10
2018-03-07T06:29:13.161Z,6.10
2018-03-07T06:31:41.398Z,6.20
2018-03-07T06:34:08.883Z,6.10
2018-03-07T06:36:36.320Z,6.20
2018-03-07T06:39:03.819Z,6.20
2018-03-07T06:41:31.276Z,6.20
2018-03-07T06:43:58.722Z,6.20
2018-03-07T06:46:26.968Z,6.30
2018-03-07T06:48:54.408Z,6.30
2018-03-07T06:51:21.879Z,6.40
2018-03-07T06:53:49.394Z,6.40
2018-03-07T06:56:16.858Z,6.50
2018-03-07T06:58:44.345Z,6.50
2018-03-07T07:01:11.787Z,6.50
2018-03-07T07:03:39.266Z,6.50
2018-03-07T07:06:06.722Z,6.60
2018-03-07T07:08:34.190Z,6.60
2018-03-07T07:11:02.403Z,6.60
2018-03-07T07:13:29.908Z,6.60
2018-03-07T07:15:57.360Z,6.60
2018-03-07T07:18:24.831Z,6.70
2018-03-07T07:20:53.047Z,6.60
2018-03-07T07:23:20.504Z,6.60
2018-03-07T07:25:47.975Z,6.50
2018-03-07T07:28:15.463Z,6.50
2018-03-07T07:30:42.908Z,6.60
2018-03-07T07:33:10.353Z,6.60
2018-03-07T07:35:37.885Z,6.60
2018-03-07T07:38:05.320Z,6.60
2018-03-07T07:40:32.812Z,6.70
2018-03-07T07:43:00.252Z,6.70
2018-03-07T07:45:27.693Z,6.80
2018-03-07T07:47:55.162Z,6.80
2018-03-07T07:50:22.625Z,6.90
2018-03-07T07:52:50.103Z,7.00
2018-03-07T07:55:17.560Z,7.00
2018-03-07T07:57:45.021Z,7.00
2018-03-07T08:00:12.483Z,7.10
2018-03-07T08:02:39.952Z,7.20
2018-03-07T08:05:07.415Z,7.20
2018-03-07T08:07:34.875Z,7.30
2018-03-07T08:10:03.086Z,7.40
2018-03-07T08:12:30.578Z,7.40
2018-03-07T08:14:58.042Z,7.60
2018-03-07T08:17:25.488Z,7.70
2018-03-07T08:19:52.974Z,7.80
2018-03-07T08:22:20.421Z,7.90
2018-03-07T08:24:47.891Z,7.90
2018-03-07T08:27:16.099Z,8.00
2018-03-07T08:29:43.600Z,8.00
2018-03-07T08:32:11.055Z,8.10
2018-03-07T08:34:38.545Z,8.10
2018-03-07T08:37:06.761Z,8.20
2018-03-07T08:39:34.211Z,8.20
2018-03-07T08:42:01.701Z,8.20
2018-03-07T08:44:29.153Z,8.30
2018-03-07T08:46:56.624Z,8.40
2018-03-07T08:49:24.860Z,8.50
2018-03-07T08:51:52.333Z,8.50
2018-03-07T08:54:19.795Z,8.60
2018-03-07T08:56:47.287Z,8.60
2018-03-07T08:59:15.504Z,8.90
2018-03-07T09:01:42.957Z,8.90
2018-03-07T09:04:10.425Z,9.10
2018-03-07T09:06:37.874Z,9.20
2018-03-07T09:09:05.344Z,9.50
2018-03-07T09:11:32.791Z,9.60
2018-03-07T09:14:00.271Z,9.60
2018-03-07T09:16:27.754Z,9.80
2018-03-07T09:18:56.025Z,10.00
2018-03-07T09:21:24.247Z,10.00
2018-03-07T09:23:51.719Z,10.00
2018-03-07T09:26:19.168Z,9.90
2018-03-07T09:28:46.656Z,9.90
2018-03-07T09:31:14.098Z,9.90
2018-03-07T09:33:41.577Z,10.00
2018-03-07T09:36:09.808Z,10.10
2018-03-07T09:38:37.294Z,10.00
2018-03-07T09:41:05.517Z,10.20
2018-03-07T09:43:33.017Z,10.20
2018-03-07T09:46:00.500Z,10.20
2018-03-07T09:48:28.715Z,10.30
2018-03-07T09:50:56.216Z,10.20
2018-03-07T09:53:23.666Z,10.30
2018-03-07T09:55:51.135Z,10.30
2018-03-07T09:58:18.610Z,10.30
2018-03-07T10:00:46.087Z,10.30
2018-03-07T10:03:13.552Z,10.30
2018-03-07T10:05:41.025Z,10.20
2018-03-07T10:08:08.524Z,10.30
2018-03-07T10:10:35.983Z,10.30
2018-03-07T10:13:04.210Z,10.10
2018-03-07T10:15:31.684Z,10.10
2018-03-07T10:17:59.134Z,10.10
2018-03-07T10:20:26.611Z,10.00
2018-03-07T10:22:54.070Z,10.00
2018-03-07T10:25:21.568Z,10.00
2018-03-07T10:27:49.037Z,10.20
2018-03-07T10:30:16.492Z,10.60
2018-03-07T10:32:43.980Z,11.00
2018-03-07T10:35:11.433Z,11.40
2018-03-07T10:37:39.010Z,11.50
2018-03-07T10:40:06.420Z,11.60
2018-03-07T10:42:33.874Z,11.90
2018-03-07T10:45:01.354Z,12.20
2018-03-07T10:47:28.875Z,12.40
2018-03-07T10:49:56.340Z,12.20
2018-03-07T10:52:23.787Z,12.00
2018-03-07T10:54:51.288Z,11.90
2018-03-07T10:57:18.726Z,11.90
2018-03-07T10:59:46.230Z,11.80
2018-03-07T11:02:14.436Z,11.70
2018-03-07T11:04:41.892Z,11.60
2018-03-07T11:07:09.358Z,11.70
2018-03-07T11:09:36.815Z,11.70
2018-03-07T11:12:04.279Z,11.70
2018-03-07T11:14:31.739Z,11.60
2018-03-07T11:16:59.245Z,11.60
2018-03-07T11:19:27.455Z,11.50
2018-03-07T11:21:54.911Z,11.50
2018-03-07T11:24:22.392Z,11.50
2018-03-07T11:26:49.856Z,11.50
2018-03-07T11:29:17.319Z,11.50
2018-03-07T11:31:44.792Z,11.50
2018-03-07T11:34:12.247Z,11.50
2018-03-07T11:36:40.475Z,11.50
2018-03-07T11:39:07.948Z,11.50
2018-03-07T11:41:35.392Z,11.50
2018-03-07T11:44:02.879Z,11.40
2018-03-07T11:46:30.336Z,11.40
2018-03-07T11:48:57.793Z,11.40
2018-03-07T11:51:25.287Z,11.50
2018-03-07T11:53:52.756Z,11.40
2018-03-07T11:56:20.257Z,11.30
2018-03-07T11:58:47.741Z,11.20
2018-03-07T12:01:15.970Z,11.20
2018-03-07T12:03:43.419Z,11.20
2018-03-07T12:06:10.899Z,11.10
2018-03-07T12:08:38.356Z,11.00
2018-03-07T12:11:05.835Z,11.00
2018-03-07T12:13:34.087Z,11.10
2018-03-07T12:16:01.540Z,11.10
2018-03-07T12:18:29.022Z,11.20
2018-03-07T12:20:57.253Z,11.40
2018-03-07T12:23:24.734Z,11.40
2018-03-07T12:25:52.181Z,11.80
2018-03-07T12:28:19.668Z,12.10
2018-03-07T12:30:47.892Z,12.30
2018-03-07T12:33:15.335Z,12.30
2018-03-07T12:35:42.810Z,12.60
2018-03-07T12:38:10.262Z,12.60
2018-03-07T12:40:37.732Z,13.00
2018-03-07T12:43:05.178Z,13.40
2018-03-07T12:45:32.724Z,13.60
2018-03-07T12:48:00.155Z,13.50
2018-03-07T12:50:27.614Z,13.50
2018-03-07T12:52:55.086Z,13.60
2018-03-07T12:55:22.526Z,13.60
2018-03-07T12:57:49.992Z,13.50
2018-03-07T13:00:17.449Z,13.40
2018-03-07T13:02:44.930Z,13.20
2018-03-07T13:05:12.405Z,13.00
2018-03-07T13:07:39.892Z,12.90
2018-03-07T13:10:08.156Z,12.80
2018-03-07T13:12:36.351Z,12.60
2018-03-07T13:15:03.827Z,12.60
2018-03-07T13:17:31.320Z,12.60
2018-03-07T13:19:58.786Z,12.40
2018-03-07T13:22:26.265Z,12.30
2018-03-07T13:24:53.718Z,12.20
2018-03-07T13:27:21.928Z,11.90
2018-03-07T13:29:49.367Z,11.90
2018-03-07T13:32:16.855Z,11.70
2018-03-07T13:34:44.316Z,11.70
2018-03-07T13:37:11.793Z,11.70
2018-03-07T13:39:39.260Z,11.60
2018-03-07T13:42:06.737Z,11.60
2018-03-07T13:44:34.948Z,11.70
2018-03-07T13:47:02.517Z,11.60
2018-03-07T13:49:29.967Z,11.90
2018-03-07T13:51:57.430Z,12.10
2018-03-07T13:54:24.901Z,12.00
2018-03-07T13:56:52.463Z,12.00
2018-03-07T13:59:20.033Z,12.00
2018-03-07T14:01:47.479Z,12.10
2018-03-07T14:04:15.735Z,12.30
2018-03-07T14:06:43.201Z,12.30
2018-03-07T14:09:10.681Z,12.30
2018-03-07T14:11:39.010Z,12.40
2018-03-07T14:14:06.462Z,12.50
2018-03-07T14:16:33.939Z,12.50
2018-03-07T14:19:01.464Z,12.60
2018-03-07T14:21:28.923Z,12.70
2018-03-07T14:23:56.381Z,12.70
2018-03-07T14:26:23.846Z,12.60
2018-03-07T14:28:51.293Z,12.70
2018-03-07T14:31:18.768Z,12.70
2018-03-07T14:33:46.246Z,12.80
2018-03-07T14:36:13.823Z,12.70
2018-03-07T14:38:41.281Z,12.70
2018-03-07T14:41:09.495Z,12.40
2018-03-07T14:43:36.981Z,12.40
2018-03-07T14:46:04.423Z,12.60
2018-03-07T14:48:31.900Z,12.70
2018-03-07T14:50:59.352Z,12.70
2018-03-07T14:53:26.847Z,12.70
2018-03-07T14:55:54.287Z,12.60
2018-03-07T14:58:21.754Z,12.60
2018-03-07T15:00:49.228Z,12.60
2018-03-07T15:03:16.680Z,12.40
2018-03-07T15:05:44.936Z,12.40
2018-03-07T15:08:13.169Z,12.50
2018-03-07T15:10:40.643Z,12.50
2018-03-07T15:13:08.108Z,12.50
2018-03-07T15:15:35.584Z,12.50
2018-03-07T15:18:03.836Z,12.10
2018-03-07T15:20:31.289Z,12.10
2018-03-07T15:22:58.773Z,12.10
2018-03-07T15:25:26.976Z,11.90
2018-03-07T15:27:54.485Z,11.80
2018-03-07T15:30:21.945Z,11.80
2018-03-07T15:32:49.460Z,11.80
2018-03-07T15:35:16.916Z,11.70
2018-03-07T15:37:44.373Z,11.70
2018-03-07T15:40:11.855Z,11.60
2018-03-07T15:42:39.327Z,11.50
2018-03-07T15:45:06.819Z,11.60
2018-03-07T15:47:34.283Z,11.70
2018-03-07T15:50:01.794Z,11.70
2018-03-07T15:52:29.256Z,11.70
2018-03-07T15:54:56.727Z,11.60
2018-03-07T15:57:24.192Z,11.60
2018-03-07T15:59:52.407Z,11.60
2018-03-07T16:02:19.884Z,11.50
2018-03-07T16:04:47.370Z,11.50
2018-03-07T16:07:15.617Z,11.20
2018-03-07T16:09:43.100Z,11.20
2018-03-07T16:12:10.553Z,11.20
2018-03-07T16:14:38.815Z,11.20
2018-03-07T16:17:06.267Z,11.10
2018-03-07T16:19:33.742Z,11.10
2018-03-07T16:22:02.002Z,11.00
2018-03-07T16:24:30.259Z,11.10
2018-03-07T16:26:57.738Z,11.00
2018-03-07T16:29:25.217Z,11.10
2018-03-07T16:31:53.460Z,11.10
2018-03-07T16:34:20.920Z,11.00
2018-03-07T16:36:48.400Z,11.00
2018-03-07T16:39:16.676Z,11.00
2018-03-07T16:41:44.920Z,11.00
2018-03-07T16:44:12.451Z,11.00
2018-03-07T16:46:39.907Z,10.80
2018-03-07T16:49:07.402Z,10.70
2018-03-07T16:51:34.855Z,10.70
2018-03-07T16:54:02.351Z,10.70
2018-03-07T16:56:30.621Z,10.70
2018-03-07T16:58:58.860Z,10.80
2018-03-07T17:01:26.330Z,10.70
2018-03-07T17:03:53.839Z,10.70
2018-03-07T17:06:21.312Z,10.70
2018-03-07T17:08:48.802Z,10.70
2018-03-07T17:11:16.252Z,10.70
2018-03-07T17:13:43.706Z,10.70
2018-03-07T17:16:11.190Z,10.60
2018-03-07T17:18:39.446Z,10.60
2018-03-07T17:21:06.923Z,10.60
2018-03-07T17:23:34.376Z,10.60
2018-03-07T17:26:02.633Z,10.60
2018-03-07T17:28:30.114Z,10.60
2018-03-07T17:30:57.603Z,10.60
2018-03-07T17:33:25.080Z,10.60
2018-03-07T17:35:52.569Z,10.60
2018-03-07T17:38:20.815Z,10.50
2018-03-07T17:40:48.267Z,10.50
2018-03-07T17:43:15.786Z,10.50
2018-03-07T17:45:43.229Z,10.40
2018-03-07T17:48:10.692Z,10.40
2018-03-07T17:50:38.183Z,10.30
2018-03-07T17:53:05.640Z,10.30
2018-03-07T17:55:33.136Z,10.20
2018-03-07T17:58:01.375Z,10.00
2018-03-07T18:00:28.854Z,10.00
2018-03-07T18:02:56.305Z,9.90
2018-03-07T18:05:23.779Z,9.80
2018-03-07T18:07:51.256Z,9.70
2018-03-07T18:10:18.793Z,9.70
2018-03-07T18:12:46.241Z,9.60
2018-03-07T18:15:13.694Z,9.60
2018-03-07T18:17:41.156Z,9.50
2018-03-07T18:20:09.403Z,9.40
2018-03-07T18:22:36.881Z,9.50
2018-03-07T18:25:04.341Z,9.40
2018-03-07T18:27:31.823Z,9.40
2018-03-07T18:29:59.293Z,9.50
2018-03-07T18:32:26.778Z,9.50
2018-03-07T18:34:54.390Z,9.50
2018-03-07T18:37:22.634Z,9.40
2018-03-07T18:39:50.217Z,9.40
2018-03-07T18:42:17.676Z,9.30
2018-03-07T18:44:45.908Z,9.00
2018-03-07T18:47:13.387Z,9.00
2018-03-07T18:49:40.843Z,9.00
2018-03-07T18:52:08.320Z,9.00
2018-03-07T18:54:36.529Z,9.00
2018-03-07T18:57:04.000Z,9.00
2018-03-07T18:59:31.475Z,9.00
2018-03-07T19:01:58.945Z,9.00
2018-03-07T19:04:27.286Z,9.00
2018-03-07T19:06:54.773Z,9.00
2018-03-07T19:09:22.271Z,9.00
2018-03-07T19:11:50.480Z,8.90
2018-03-07T19:14:17.991Z,8.90
2018-03-07T19:16:46.221Z,8.80
2018-03-07T19:19:13.680Z,8.80
2018-03-07T19:21:41.171Z,8.70
2018-03-07T19:24:09.434Z,8.60
2018-03-07T19:26:36.896Z,8.50
2018-03-07T19:29:05.185Z,8.40
2018-03-07T19:31:33.441Z,8.40
2018-03-07T19:34:00.893Z,8.40
2018-03-07T19:36:28.396Z,8.40
2018-03-07T19:38:55.844Z,8.30
2018-03-07T19:41:23.337Z,8.30
2018-03-07T19:43:50.802Z,8.20
2018-03-07T19:46:18.249Z,8.20
2018-03-07T19:48:45.744Z,8.20
2018-03-07T19:51:13.995Z,8.20
2018-03-07T19:53:41.483Z,8.30
2018-03-07T19:56:09.706Z,8.20
2018-03-07T19:58:37.204Z,8.20
2018-03-07T20:01:04.663Z,8.10
2018-03-07T20:03:32.921Z,8.10
2018-03-07T20:06:00.390Z,8.10
2018-03-07T20:08:27.892Z,8.10
2018-03-07T20:10:55.360Z,8.00
2018-03-07T20:13:22.828Z,8.00
2018-03-07T20:15:50.274Z,8.00
2018-03-07T20:18:17.747Z,8.00
2018-03-07T20:20:45.283Z,7.90
2018-03-07T20:23:12.948Z,7.90
2018-03-07T20:25:40.408Z,7.80
2018-03-07T20:28:07.856Z,7.80
2018-03-07T20:30:35.370Z,7.90
2018-03-07T20:33:03.607Z,8.00
2018-03-07T20:35:31.060Z,7.90
2018-03-07T20:37:58.542Z,8.00
2018-03-07T20:40:26.049Z,8.10
2018-03-07T20:42:53.503Z,8.10
2018-03-07T20:45:20.971Z,8.10
2018-03-07T20:47:48.485Z,8.20
2018-03-07T20:50:16.720Z,8.30
2018-03-07T20:52:44.289Z,8.20
2018-03-07T20:55:11.743Z,8.30
2018-03-07T20:57:39.187Z,8.30
2018-03-07T21:00:06.702Z,8.30
2018-03-07T21:02:34.167Z,8.30
2018-03-07T21:05:01.665Z,8.30
2018-03-07T21:07:29.112Z,8.40
2018-03-07T21:09:56.614Z,8.40
2018-03-07T21:12:24.819Z,8.40
2018-03-07T21:14:52.346Z,8.40
2018-03-07T21:17:19.778Z,8.40
2018-03-07T21:19:47.278Z,8.40
2018-03-07T21:22:14.728Z,8.40
2018-03-07T21:24:42.260Z,8.30
2018-03-07T21:27:10.530Z,8.40
2018-03-07T21:29:37.989Z,8.30
2018-03-07T21:32:06.233Z,8.30
2018-03-07T21:34:33.700Z,8.30
2018-03-07T21:37:01.228Z,8.30
2018-03-07T21:39:28.691Z,8.30
2018-03-07T21:41:56.162Z,8.30
2018-03-07T21:44:23.681Z,8.30
2018-03-07T21:46:51.163Z,8.30
2018-03-07T21:49:18.624Z,8.20
2018-03-07T21:51:46.075Z,8.30
2018-03-07T21:54:13.556Z,8.20
2018-03-07T21:56:41.014Z,8.20
2018-03-07T21:59:08.507Z,8.20
2018-03-07T22:01:36.060Z,8.10
2018-03-07T22:04:04.307Z,7.80
2018-03-07T22:06:31.785Z,7.80
2018-03-07T22:09:00.017Z,7.80
2018-03-07T22:11:27.488Z,7.70
2018-03-07T22:13:54.944Z,7.70
2018-03-07T22:16:22.437Z,7.80
2018-03-07T22:18:50.657Z,7.90
2018-03-07T22:21:18.153Z,7.90
2018-03-07T22:23:46.380Z,7.80
2018-03-07T22:26:13.827Z,7.80
2018-03-07T22:28:41.306Z,7.80
2018-03-07T22:31:08.778Z,7.70
2018-03-07T22:33:36.247Z,7.80
2018-03-07T22:36:03.688Z,7.70
2018-03-07T22:38:31.169Z,7.70
2018-03-07T22:40:59.424Z,7.70
2018-03-07T22:43:26.885Z,7.60
2018-03-07T22:45:54.356Z,7.70
2018-03-07T22:48:22.570Z,7.80
2018-03-07T22:50:50.046Z,7.70
2018-03-07T22:53:17.504Z,7.80
2018-03-07T22:55:44.973Z,7.80
2018-03-07T22:58:12.417Z,7.70
2018-03-07T23:00:45.595Z,7.80
2018-03-07T23:03:13.050Z,7.70
2018-03-07T23:05:40.512Z,7.70
2018-03-07T23:08:08.016Z,7.60
2018-03-07T23:10:35.450Z,7.50
2018-03-07T23:13:02.933Z,7.50
2018-03-07T23:15:31.249Z,7.50
2018-03-07T23:17:58.726Z,7.50
2018-03-07T23:20:26.173Z,7.50
2018-03-07T23:22:53.660Z,7.50
2018-03-07T23:25:21.115Z,7.50
2018-03-07T23:27:48.556Z,7.40
2018-03-07T23:30:16.034Z,7.40
2018-03-07T23:32:44.269Z,7.30
2018-03-07T23:35:12.562Z,7.30
2018-03-07T23:37:40.017Z,7.40
2018-03-07T23:40:07.500Z,7.40
2018-03-07T23:42:34.962Z,7.40
2018-03-07T23:45:02.428Z,7.40
2018-03-07T23:47:30.666Z,7.20
2018-03-07T23:49:58.111Z,7.20
2018-03-07T23:52:25.600Z,7.20
2018-03-07T23:54:53.045Z,7.10
2018-03-07T23:57:20.558Z,7.20
2018-03-07T23:59:47.993Z,7.20
